Big Bear Station Historical Data
Daily Summary for November 26, 2017 Units:  English    Metric   Both
« Previous Day
Next Day »
Daily Weekly Monthly Yearly Custom
  High: Low: Average:
Temperature: 65.1 °F 33.6 °F 48 °F
Dew Point: 31.9 °F 12.3 °F 21.9 °F
Humidity: 88 % 13 % 44 %
Wind Speed: 9.4 mph 0.0 mph 1.1 mph
Wind Gust: -999.0 mph - -
Wind:- - WSW
Pressure: 30.35 in 30.20 in -
Precipitation: 0.00 in    
Historical Graphs
 
 
Tabular Data for November 26, 2017
Time Temperature Dew Point Pressure Wind Wind Speed Wind Gust Humidity Rainfall Rate (Hourly)
00:06 37.0 °F 30.8 °F 30.35 in Calm   -999.0 mph 78 % 0 in
00:21 36.7 °F 30.5 °F 30.34 in Calm   -999.0 mph 78 % 0 in
00:36 36.5 °F 30.6 °F 30.34 in Calm   -999.0 mph 79 % 0 in
00:52 36.5 °F 30.6 °F 30.34 in Calm   -999.0 mph 79 % 0 in
01:07 36.5 °F 30.6 °F 30.34 in Calm   -999.0 mph 79 % 0 in
01:22 35.8 °F 30.2 °F 30.34 in Calm   -999.0 mph 80 % 0 in
01:38 36.1 °F 30.8 °F 30.34 in Calm   -999.0 mph 81 % 0 in
01:53 36.0 °F 31.6 °F 30.34 in Calm   -999.0 mph 84 % 0 in
02:08 36.0 °F 31.9 °F 30.34 in Calm   -999.0 mph 85 % 0 in
02:23 36.1 °F 30.8 °F 30.34 in Calm   -999.0 mph 81 % 0 in
02:38 35.8 °F 29.6 °F 30.34 in Calm   -999.0 mph 78 % 0 in
02:54 35.4 °F 30.8 °F 30.34 in Calm   -999.0 mph 83 % 0 in
03:09 35.4 °F 30.8 °F 30.34 in Calm   -999.0 mph 83 % 0 in
03:25 35.1 °F 30.2 °F 30.33 in Calm   -999.0 mph 82 % 0 in
03:40 35.1 °F 28.9 °F 30.33 in Calm   -999.0 mph 78 % 0 in
03:55 34.7 °F 29.2 °F 30.33 in Calm   -999.0 mph 80 % 0 in
04:10 34.3 °F 28.8 °F 30.33 in Calm   -999.0 mph 80 % 0 in
04:25 34.3 °F 29.4 °F 30.33 in Calm   -999.0 mph 82 % 0 in
04:41 34.2 °F 29.9 °F 30.33 in Calm   -999.0 mph 84 % 0 in
04:56 34.2 °F 29.9 °F 30.33 in SSE 2.2 mph -999.0 mph 84 % 0 in
05:11 34.2 °F 30.2 °F 30.33 in Calm   -999.0 mph 85 % 0 in
05:26 34.0 °F 30.0 °F 30.33 in Calm   -999.0 mph 85 % 0 in
05:41 33.8 °F 30.1 °F 30.33 in Calm   -999.0 mph 86 % 0 in
05:57 33.8 °F 29.8 °F 30.33 in Calm   -999.0 mph 85 % 0 in
06:12 33.8 °F 30.1 °F 30.33 in Calm   -999.0 mph 86 % 0 in
06:27 33.6 °F 30.4 °F 30.33 in Calm   -999.0 mph 88 % 0 in
06:42 33.8 °F 30.6 °F 30.33 in Calm   -999.0 mph 88 % 0 in
06:57 33.8 °F 29.2 °F 30.33 in Calm   -999.0 mph 83 % 0 in
07:13 33.6 °F 29.9 °F 30.34 in Calm   -999.0 mph 86 % 0 in
07:28 34.0 °F 28.8 °F 30.34 in Calm   -999.0 mph 81 % 0 in
07:43 35.2 °F 30.3 °F 30.34 in Calm   -999.0 mph 82 % 0 in
07:58 38.7 °F 31.1 °F 30.34 in South 2.7 mph -999.0 mph 74 % 0 in
08:14 45.0 °F 16.2 °F 30.34 in Calm   -999.0 mph 31 % 0 in
08:29 48.2 °F 13.1 °F 30.34 in West 1.7 mph -999.0 mph 24 % 0 in
08:44 52.3 °F 13.5 °F 30.34 in ESE 2.2 mph -999.0 mph 21 % 0 in
08:59 54.1 °F 13.9 °F 30.34 in SW 2.7 mph -999.0 mph 20 % 0 in
09:14 56.7 °F 13.6 °F 30.34 in NNW 2.7 mph -999.0 mph 18 % 0 in
09:30 57.4 °F 15.4 °F 30.34 in Calm   -999.0 mph 19 % 0 in
09:45 58.1 °F 14.8 °F 30.34 in WNW 1.7 mph -999.0 mph 18 % 0 in
10:00 59.7 °F 13.4 °F 30.34 in NNE 4.2 mph -999.0 mph 16 % 0 in
10:15 59.7 °F 14.8 °F 30.34 in NW 9.4 mph -999.0 mph 17 % 0 in
10:30 61.0 °F 15.8 °F 30.34 in South 2.2 mph -999.0 mph 17 % 0 in
10:46 61.3 °F 16.1 °F 30.32 in West 2.2 mph -999.0 mph 17 % 0 in
11:01 62.1 °F 16.7 °F 30.32 in NW 1.7 mph -999.0 mph 17 % 0 in
11:16 62.8 °F 17.3 °F 30.32 in WSW 1.1 mph -999.0 mph 17 % 0 in
11:32 63.5 °F 15.0 °F 30.31 in Calm   -999.0 mph 15 % 0 in
11:47 64.4 °F 15.7 °F 30.30 in South 3.2 mph -999.0 mph 15 % 0 in
12:02 65.1 °F 16.3 °F 30.30 in NW 2.7 mph -999.0 mph 15 % 0 in
12:17 64.9 °F 14.5 °F 30.29 in WNW 2.7 mph -999.0 mph 14 % 0 in
12:32 64.2 °F 12.3 °F 30.28 in NW 4.2 mph -999.0 mph 13 % 0 in
12:48 64.9 °F 16.1 °F 30.27 in South 3.7 mph -999.0 mph 15 % 0 in
13:03 63.7 °F 16.6 °F 30.27 in WSW 3.2 mph -999.0 mph 16 % 0 in
13:18 63.3 °F 14.8 °F 30.27 in WNW 3.7 mph -999.0 mph 15 % 0 in
13:33 62.2 °F 15.4 °F 30.26 in West 4.2 mph -999.0 mph 16 % 0 in
13:48 62.2 °F 12.4 °F 30.26 in South 3.2 mph -999.0 mph 14 % 0 in
14:04 61.9 °F 13.7 °F 30.26 in SSE 2.7 mph -999.0 mph 15 % 0 in
14:19 61.2 °F 17.3 °F 30.26 in West 2.2 mph -999.0 mph 18 % 0 in
14:35 60.4 °F 16.7 °F 30.25 in NW 2.7 mph -999.0 mph 18 % 0 in
14:50 59.9 °F 17.5 °F 30.25 in West 1.1 mph -999.0 mph 19 % 0 in
15:05 59.2 °F 18.1 °F 30.25 in NE 1.7 mph -999.0 mph 20 % 0 in
15:20 58.8 °F 16.6 °F 30.25 in SW 2.2 mph -999.0 mph 19 % 0 in
15:36 57.9 °F 18.2 °F 30.25 in WNW 2.2 mph -999.0 mph 21 % 0 in
15:51 56.8 °F 18.3 °F 30.24 in NW 2.7 mph -999.0 mph 22 % 0 in
16:06 55.9 °F 18.6 °F 30.24 in Calm   -999.0 mph 23 % 0 in
16:21 54.9 °F 18.8 °F 30.24 in Calm   -999.0 mph 24 % 0 in
16:36 53.8 °F 19.7 °F 30.24 in Calm   -999.0 mph 26 % 0 in
16:52 53.1 °F 17.2 °F 30.24 in Calm   -999.0 mph 24 % 0 in
17:07 52.0 °F 17.2 °F 30.24 in Calm   -999.0 mph 25 % 0 in
17:22 51.1 °F 14.5 °F 30.24 in Calm   -999.0 mph 23 % 0 in
17:37 50.4 °F 14.0 °F 30.24 in Calm   -999.0 mph 23 % 0 in
17:52 49.6 °F 14.2 °F 30.23 in Calm   -999.0 mph 24 % 0 in
18:08 49.5 °F 16.0 °F 30.24 in SSW 1.1 mph -999.0 mph 26 % 0 in
18:23 49.1 °F 17.4 °F 30.23 in Calm   -999.0 mph 28 % 0 in
18:38 49.8 °F 18.8 °F 30.23 in SSW 1.7 mph -999.0 mph 29 % 0 in
18:53 48.7 °F 18.6 °F 30.24 in Calm   -999.0 mph 30 % 0 in
19:08 48.4 °F 19.1 °F 30.23 in Calm   -999.0 mph 31 % 0 in
19:24 48.2 °F 19.7 °F 30.23 in Calm   -999.0 mph 32 % 0 in
19:39 48.6 °F 20.0 °F 30.22 in SSW 2.2 mph -999.0 mph 32 % 0 in
19:54 48.9 °F 19.6 °F 30.22 in South 2.2 mph -999.0 mph 31 % 0 in
20:10 49.1 °F 20.5 °F 30.23 in Calm   -999.0 mph 32 % 0 in
20:25 48.9 °F 21.0 °F 30.22 in Calm   -999.0 mph 33 % 0 in
20:40 48.7 °F 20.9 °F 30.22 in Calm   -999.0 mph 33 % 0 in
20:55 48.6 °F 20.8 °F 30.22 in South 2.2 mph -999.0 mph 33 % 0 in
21:10 48.6 °F 20.8 °F 30.22 in SSW 2.2 mph -999.0 mph 33 % 0 in
21:26 48.0 °F 20.2 °F 30.21 in Calm   -999.0 mph 33 % 0 in
21:41 48.2 °F 19.7 °F 30.21 in Calm   -999.0 mph 32 % 0 in
21:56 48.9 °F 20.3 °F 30.21 in NW 3.2 mph -999.0 mph 32 % 0 in
22:11 49.6 °F 20.9 °F 30.21 in NW 2.7 mph -999.0 mph 32 % 0 in
22:26 49.6 °F 20.9 °F 30.21 in North 2.2 mph -999.0 mph 32 % 0 in
22:42 49.5 °F 20.8 °F 30.21 in Calm   -999.0 mph 32 % 0 in
22:57 48.4 °F 19.9 °F 30.20 in Calm   -999.0 mph 32 % 0 in
23:12 47.8 °F 24.0 °F 30.20 in Calm   -999.0 mph 39 % 0 in
23:27 47.7 °F 26.3 °F 30.20 in West 1.1 mph -999.0 mph 43 % 0 in
23:43 47.5 °F 27.2 °F 30.20 in North 2.7 mph -999.0 mph 45 % 0 in
23:58 46.6 °F 27.4 °F 30.20 in Calm   -999.0 mph 47 % 0 in
Big Bear CA Weather
Compliments of Weather Underground - 1.5 mb